createdAt,value
2023-01-29T00:01:48.493Z,96434.80
2023-01-29T00:04:19.653Z,96432.75
2023-01-29T00:06:50.235Z,96432.19
2023-01-29T00:09:20.738Z,96427.49
2023-01-29T00:11:51.495Z,96425.45
2023-01-29T00:14:22.534Z,96423.90
2023-01-29T00:16:52.969Z,96426.59
2023-01-29T00:19:23.271Z,96426.98
2023-01-29T00:21:53.561Z,96427.67
2023-01-29T00:24:24.665Z,96431.98
2023-01-29T00:27:00.050Z,96432.59
2023-01-29T00:29:30.440Z,96428.98
2023-01-29T00:32:01.103Z,96424.27
2023-01-29T00:34:31.007Z,96423.61
2023-01-29T00:37:08.572Z,96422.67
2023-01-29T00:39:47.532Z,96420.32
2023-01-29T00:42:36.019Z,96419.12
2023-01-29T00:45:08.038Z,96413.80
2023-01-29T00:47:39.167Z,96409.81
2023-01-29T00:50:09.916Z,96409.25
2023-01-29T00:52:41.517Z,96408.80
2023-01-29T00:55:12.360Z,96405.13
2023-01-29T00:57:42.537Z,96401.48
2023-01-29T01:00:16.981Z,96397.30
2023-01-29T01:03:06.485Z,96396.75
2023-01-29T01:05:38.808Z,96397.79
2023-01-29T01:08:29.254Z,96397.55
2023-01-29T01:11:05.615Z,96399.94
2023-01-29T01:13:36.187Z,96409.31
2023-01-29T01:16:13.092Z,96410.63
2023-01-29T01:18:43.296Z,96408.52
2023-01-29T01:21:13.592Z,96412.23
2023-01-29T01:23:46.849Z,96407.14
2023-01-29T01:26:16.971Z,96405.30
2023-01-29T01:28:47.409Z,96402.84
2023-01-29T01:31:17.953Z,96402.03
2023-01-29T01:33:48.139Z,96402.31
2023-01-29T01:36:18.422Z,96403.34
2023-01-29T01:38:49.363Z,96399.23
2023-01-29T01:41:21.911Z,96402.55
2023-01-29T01:43:54.493Z,96400.33
2023-01-29T01:46:25.395Z,96399.89
2023-01-29T01:48:59.552Z,96395.20
2023-01-29T01:51:31.754Z,96392.71
2023-01-29T01:54:04.723Z,96388.09
2023-01-29T01:56:40.449Z,96392.14
2023-01-29T01:59:13.844Z,96394.94
2023-01-29T02:01:49.737Z,96395.50
2023-01-29T02:04:41.166Z,96397.74
2023-01-29T02:07:31.767Z,96397.53
2023-01-29T02:10:07.251Z,96400.58
2023-01-29T02:12:38.377Z,96398.90
2023-01-29T02:15:11.198Z,96400.19
2023-01-29T02:17:41.909Z,96402.61
2023-01-29T02:20:19.729Z,96403.52
2023-01-29T02:23:11.327Z,96399.74
2023-01-29T02:25:53.458Z,96400.20
2023-01-29T02:28:33.226Z,96399.30
2023-01-29T02:31:09.116Z,96393.83
2023-01-29T02:33:45.787Z,96391.70
2023-01-29T02:36:23.747Z,96392.15
2023-01-29T02:39:00.718Z,96387.33
2023-01-29T02:41:36.997Z,96383.61
2023-01-29T02:44:10.287Z,96380.02
2023-01-29T02:46:44.868Z,96385.02
2023-01-29T02:49:18.858Z,96377.48
2023-01-29T02:51:55.984Z,96379.33
2023-01-29T02:54:32.868Z,96371.63
2023-01-29T02:57:08.254Z,96376.69
2023-01-29T02:59:43.025Z,96379.09
2023-01-29T03:02:16.818Z,96377.36
2023-01-29T03:04:50.893Z,96379.48
2023-01-29T03:07:38.982Z,96378.55
2023-01-29T03:10:15.554Z,96378.19
2023-01-29T03:12:48.060Z,96376.66
2023-01-29T03:15:24.934Z,96378.66
2023-01-29T03:17:55.416Z,96375.98
2023-01-29T03:20:31.776Z,96376.88
2023-01-29T03:23:23.467Z,96377.60
2023-01-29T03:26:13.343Z,96380.75
2023-01-29T03:29:02.966Z,96380.33
2023-01-29T03:31:52.070Z,96379.79
2023-01-29T03:34:28.210Z,96379.14
2023-01-29T03:37:00.594Z,96379.70
2023-01-29T03:39:32.324Z,96377.64
2023-01-29T03:42:09.979Z,96377.31
2023-01-29T03:44:49.092Z,96382.34
2023-01-29T03:47:23.479Z,96381.97
2023-01-29T03:49:59.933Z,96386.88
2023-01-29T03:52:41.586Z,96386.28
2023-01-29T03:55:17.521Z,96386.36
2023-01-29T03:57:54.177Z,96387.52
2023-01-29T04:00:29.168Z,96386.98
2023-01-29T04:03:03.902Z,96386.39
2023-01-29T04:05:40.247Z,96387.23
2023-01-29T04:08:15.055Z,96383.98
2023-01-29T04:10:46.295Z,96384.59
2023-01-29T04:13:18.342Z,96377.00
2023-01-29T04:15:53.932Z,96374.42
2023-01-29T04:18:24.681Z,96374.42
2023-01-29T04:20:55.312Z,96376.57
2023-01-29T04:23:27.088Z,96379.08
2023-01-29T04:26:10.167Z,96379.59
2023-01-29T04:28:51.001Z,96382.88
2023-01-29T04:31:22.885Z,96387.09
2023-01-29T04:34:01.583Z,96389.02
2023-01-29T04:36:37.768Z,96394.29
2023-01-29T04:39:13.995Z,96396.88
2023-01-29T04:41:50.575Z,96398.60
2023-01-29T04:44:27.372Z,96397.20
2023-01-29T04:47:04.388Z,96395.55
2023-01-29T04:49:38.015Z,96396.80
2023-01-29T04:52:16.312Z,96401.38
2023-01-29T04:54:54.913Z,96404.41
2023-01-29T04:57:29.495Z,96406.66
2023-01-29T05:00:04.495Z,96408.24
2023-01-29T05:02:38.122Z,96410.69
2023-01-29T05:05:09.843Z,96411.14
2023-01-29T05:07:40.865Z,96409.23
2023-01-29T05:10:14.921Z,96409.73
2023-01-29T05:12:47.428Z,96409.31
2023-01-29T05:15:21.193Z,96410.63
2023-01-29T05:17:53.611Z,96410.69
2023-01-29T05:20:23.948Z,96410.40
2023-01-29T05:22:54.297Z,96413.92
2023-01-29T05:25:29.206Z,96411.98
2023-01-29T05:28:06.198Z,96413.95
2023-01-29T05:30:38.973Z,96413.20
2023-01-29T05:33:15.804Z,96416.21
2023-01-29T05:35:44.992Z,96413.54
2023-01-29T05:38:16.165Z,96410.11
2023-01-29T05:40:46.433Z,96409.35
2023-01-29T05:43:19.661Z,96413.20
2023-01-29T05:45:55.932Z,96413.01
2023-01-29T05:48:27.641Z,96415.80
2023-01-29T05:51:03.238Z,96420.48
2023-01-29T05:53:34.853Z,96417.30
2023-01-29T05:56:06.347Z,96417.40
2023-01-29T05:58:37.145Z,96415.58
2023-01-29T06:01:14.959Z,96420.02
2023-01-29T06:03:45.681Z,96414.84
2023-01-29T06:06:16.427Z,96411.19
2023-01-29T06:08:46.721Z,96412.18
2023-01-29T06:11:18.105Z,96406.16
2023-01-29T06:13:48.803Z,96411.19
2023-01-29T06:16:17.809Z,96414.17
2023-01-29T06:18:48.111Z,96409.52
2023-01-29T06:21:20.051Z,96410.67
2023-01-29T06:23:54.046Z,96415.23
2023-01-29T06:26:25.113Z,96416.70
2023-01-29T06:28:55.491Z,96412.36
2023-01-29T06:31:37.945Z,96409.16
2023-01-29T06:34:09.824Z,96411.61
2023-01-29T06:36:41.500Z,96415.90
2023-01-29T06:39:12.475Z,96415.70
2023-01-29T06:41:42.733Z,96421.65
2023-01-29T06:44:12.996Z,96423.85
2023-01-29T06:46:43.417Z,96422.31
2023-01-29T06:49:14.051Z,96419.45
2023-01-29T06:51:45.070Z,96428.92
2023-01-29T06:54:15.675Z,96426.66
2023-01-29T06:56:46.408Z,96425.08
2023-01-29T06:59:16.894Z,96424.31
2023-01-29T07:01:47.677Z,96420.30
2023-01-29T07:04:18.140Z,96419.80
2023-01-29T07:06:48.828Z,96417.98
2023-01-29T07:09:20.227Z,96419.44
2023-01-29T07:11:51.026Z,96420.91
2023-01-29T07:14:20.278Z,96419.73
2023-01-29T07:16:51.011Z,96417.90
2023-01-29T07:19:19.897Z,96416.21
2023-01-29T07:21:50.776Z,96407.55
2023-01-29T07:24:25.232Z,96403.36
2023-01-29T07:26:55.673Z,96405.00
2023-01-29T07:29:26.682Z,96401.34
2023-01-29T07:31:57.183Z,96396.73
2023-01-29T07:34:27.406Z,96397.54
2023-01-29T07:36:57.692Z,96395.87
2023-01-29T07:39:27.898Z,96390.42
2023-01-29T07:41:58.909Z,96392.42
2023-01-29T07:44:29.208Z,96394.67
2023-01-29T07:46:59.534Z,96393.60
2023-01-29T07:49:29.781Z,96391.21
2023-01-29T07:52:00.492Z,96384.73
2023-01-29T07:54:33.116Z,96383.90
2023-01-29T07:57:03.300Z,96380.39
2023-01-29T07:59:33.757Z,96376.02
2023-01-29T08:02:02.862Z,96382.64
2023-01-29T08:04:33.152Z,96374.56
2023-01-29T08:07:04.614Z,96373.53
2023-01-29T08:09:35.159Z,96371.13
2023-01-29T08:12:05.866Z,96365.97
2023-01-29T08:14:36.416Z,96360.63
2023-01-29T08:17:06.599Z,96358.20
2023-01-29T08:19:36.812Z,96354.83
2023-01-29T08:22:07.589Z,96350.98
2023-01-29T08:24:53.260Z,96350.71
2023-01-29T08:27:24.537Z,96344.67
2023-01-29T08:29:54.837Z,96340.77
2023-01-29T08:32:25.054Z,96335.68
2023-01-29T08:34:55.774Z,96333.73
2023-01-29T08:37:26.194Z,96328.35
2023-01-29T08:39:56.461Z,96322.42
2023-01-29T08:42:26.607Z,96324.88
2023-01-29T08:44:56.773Z,96318.96
2023-01-29T08:47:28.610Z,96312.22
2023-01-29T08:49:59.021Z,96309.89
2023-01-29T08:52:29.322Z,96301.98
2023-01-29T08:54:59.529Z,96300.58
2023-01-29T08:57:29.631Z,96298.48
2023-01-29T08:59:59.760Z,96295.30
2023-01-29T09:02:30.378Z,96290.63
2023-01-29T09:05:00.803Z,96288.83
2023-01-29T09:07:30.453Z,96282.54
2023-01-29T09:10:01.056Z,96282.39
2023-01-29T09:12:30.144Z,96279.98
2023-01-29T09:15:01.193Z,96273.86
2023-01-29T09:17:31.329Z,96268.44
2023-01-29T09:20:01.507Z,96268.56
2023-01-29T09:22:34.441Z,96263.96
2023-01-29T09:25:05.511Z,96263.54
2023-01-29T09:27:35.976Z,96260.79
2023-01-29T09:30:08.475Z,96256.84
2023-01-29T09:32:54.910Z,96252.55
2023-01-29T09:35:25.444Z,96247.77
2023-01-29T09:37:58.810Z,96241.34
2023-01-29T09:40:33.350Z,96241.02
2023-01-29T09:43:05.475Z,96233.98
2023-01-29T09:45:36.614Z,96230.15
2023-01-29T09:48:11.103Z,96225.92
2023-01-29T09:50:43.687Z,96222.16
2023-01-29T09:53:18.946Z,96214.64
2023-01-29T09:55:52.123Z,96219.05
2023-01-29T09:58:29.695Z,96214.02
2023-01-29T10:01:06.849Z,96212.73
2023-01-29T10:06:08.860Z,96209.14
2023-01-29T10:09:08.403Z,96207.60
2023-01-29T10:11:47.131Z,96199.20
2023-01-29T10:14:22.925Z,96199.13
2023-01-29T10:17:04.403Z,96197.63
2023-01-29T10:19:50.248Z,96191.80
2023-01-29T10:22:54.364Z,96189.00
2023-01-29T10:25:25.211Z,96185.16
2023-01-29T10:27:57.746Z,96186.15
2023-01-29T10:30:33.669Z,96182.26
2023-01-29T10:33:05.868Z,96179.89
2023-01-29T10:35:37.948Z,96181.38
2023-01-29T10:38:19.633Z,96177.70
2023-01-29T10:40:55.761Z,96175.83
2023-01-29T10:43:32.857Z,96173.83
2023-01-29T10:46:10.218Z,96170.77
2023-01-29T10:48:47.742Z,96169.87
2023-01-29T10:51:26.455Z,96167.02
2023-01-29T10:54:05.941Z,96167.04
2023-01-29T10:56:47.965Z,96167.77
2023-01-29T10:59:31.395Z,96168.98
2023-01-29T11:02:09.454Z,96166.63
2023-01-29T11:04:42.801Z,96166.67
2023-01-29T11:07:13.796Z,96167.92
2023-01-29T11:09:47.052Z,96169.64
2023-01-29T11:12:20.193Z,96170.42
2023-01-29T11:14:56.590Z,96166.34
2023-01-29T11:17:27.551Z,96164.80
2023-01-29T11:19:58.300Z,96163.40
2023-01-29T11:22:30.427Z,96158.22
2023-01-29T11:25:16.273Z,96157.16
2023-01-29T11:27:48.611Z,96160.12
2023-01-29T11:30:22.434Z,96158.57
2023-01-29T11:32:56.733Z,96159.52
2023-01-29T11:35:30.123Z,96163.19
2023-01-29T11:38:09.909Z,96163.16
2023-01-29T11:40:54.671Z,96161.23
2023-01-29T11:43:31.450Z,96163.87
2023-01-29T11:46:05.600Z,96165.08
2023-01-29T11:48:42.686Z,96165.22
2023-01-29T11:51:22.912Z,96166.42
2023-01-29T11:53:55.004Z,96165.33
2023-01-29T11:56:30.003Z,96166.56
2023-01-29T11:59:04.143Z,96168.22
2023-01-29T12:01:37.857Z,96172.88
2023-01-29T12:04:16.741Z,96176.11
2023-01-29T12:06:50.260Z,96175.53
2023-01-29T12:09:24.832Z,96174.11
2023-01-29T12:11:55.611Z,96171.23
2023-01-29T12:14:33.360Z,96167.11
2023-01-29T12:17:06.706Z,96166.77
2023-01-29T12:19:42.765Z,96164.17
2023-01-29T12:22:18.220Z,96160.00
2023-01-29T12:24:53.217Z,96165.25
2023-01-29T12:27:30.626Z,96174.73
2023-01-29T12:30:05.054Z,96179.59
2023-01-29T12:32:42.410Z,96178.95
2023-01-29T12:35:18.820Z,96175.25
2023-01-29T12:37:54.966Z,96177.05
2023-01-29T12:40:28.095Z,96176.33
2023-01-29T12:43:03.370Z,96176.85
2023-01-29T12:45:35.406Z,96171.61
2023-01-29T12:48:08.730Z,96169.61
2023-01-29T12:50:39.639Z,96169.52
2023-01-29T12:53:11.307Z,96169.45
2023-01-29T12:55:47.597Z,96171.60
2023-01-29T12:58:22.073Z,96175.30
2023-01-29T13:00:53.801Z,96178.64
2023-01-29T13:03:28.294Z,96176.59
2023-01-29T13:06:00.519Z,96180.27
2023-01-29T13:08:33.736Z,96180.08
2023-01-29T13:11:08.087Z,96184.92
2023-01-29T13:13:42.300Z,96182.58
2023-01-29T13:16:22.273Z,96187.48
2023-01-29T13:18:55.666Z,96186.84
2023-01-29T13:21:27.922Z,96189.58
2023-01-29T13:24:00.693Z,96192.50
2023-01-29T13:26:34.344Z,96193.73
2023-01-29T13:29:07.673Z,96198.88
2023-01-29T13:31:46.052Z,96204.15
2023-01-29T13:34:17.924Z,96207.80
2023-01-29T13:36:49.895Z,96210.65
2023-01-29T13:39:25.000Z,96217.67
2023-01-29T13:41:56.556Z,96221.27
2023-01-29T13:44:29.108Z,96221.09
2023-01-29T13:47:01.807Z,96226.14
2023-01-29T13:49:35.695Z,96227.95
2023-01-29T13:52:25.178Z,96228.50
2023-01-29T13:55:03.984Z,96224.84
2023-01-29T13:58:04.926Z,96232.83
2023-01-29T14:01:00.984Z,96237.08
2023-01-29T14:04:10.132Z,96237.88
2023-01-29T14:06:57.492Z,96239.55
2023-01-29T14:10:02.589Z,96239.90
2023-01-29T14:12:53.452Z,96244.20
2023-01-29T14:15:25.930Z,96244.02
2023-01-29T14:18:18.474Z,96241.66
2023-01-29T14:20:59.973Z,96243.77
2023-01-29T14:23:42.366Z,96247.06
2023-01-29T14:26:28.863Z,96242.86
2023-01-29T14:29:05.853Z,96243.69
2023-01-29T14:31:43.141Z,96253.80
2023-01-29T14:34:24.677Z,96260.23
2023-01-29T14:36:57.604Z,96260.59
2023-01-29T14:39:42.267Z,96263.94
2023-01-29T14:42:21.827Z,96270.48
2023-01-29T14:45:07.906Z,96275.48
2023-01-29T14:47:59.447Z,96277.30
2023-01-29T14:50:52.460Z,96284.84
2023-01-29T14:53:28.348Z,96290.02
2023-01-29T14:56:02.621Z,96295.80
2023-01-29T14:58:39.844Z,96294.36
2023-01-29T15:01:20.522Z,96299.90
2023-01-29T15:03:52.832Z,96302.11
2023-01-29T15:06:29.722Z,96301.85
2023-01-29T15:09:07.917Z,96306.33
2023-01-29T15:11:45.113Z,96303.23
2023-01-29T15:14:24.556Z,96308.73
2023-01-29T15:17:01.441Z,96310.48
2023-01-29T15:19:35.498Z,96306.39
2023-01-29T15:22:08.438Z,96303.59
2023-01-29T15:24:40.900Z,96303.33
2023-01-29T15:27:16.224Z,96309.05
2023-01-29T15:29:52.149Z,96310.67
2023-01-29T15:32:29.839Z,96313.21
2023-01-29T15:35:02.471Z,96306.71
2023-01-29T15:37:34.634Z,96303.81
2023-01-29T15:40:07.920Z,96308.50
2023-01-29T15:42:48.127Z,96308.15
2023-01-29T15:45:29.737Z,96312.27
2023-01-29T15:48:04.048Z,96314.71
2023-01-29T15:50:36.602Z,96316.60
2023-01-29T15:53:10.306Z,96316.41
2023-01-29T15:55:44.722Z,96325.30
2023-01-29T15:58:22.030Z,96332.83
2023-01-29T16:00:53.684Z,96335.52
2023-01-29T16:03:25.338Z,96333.86
2023-01-29T16:05:56.477Z,96334.39
2023-01-29T16:08:28.466Z,96333.70
2023-01-29T16:11:04.018Z,96340.99
2023-01-29T16:13:36.189Z,96341.55
2023-01-29T16:16:19.782Z,96346.55
2023-01-29T16:18:59.832Z,96344.50
2023-01-29T16:21:34.968Z,96350.51
2023-01-29T16:24:09.475Z,96351.66
2023-01-29T16:26:43.096Z,96351.68
2023-01-29T16:29:14.889Z,96355.52
2023-01-29T16:31:47.513Z,96356.23
2023-01-29T16:34:23.753Z,96358.70
2023-01-29T16:36:55.313Z,96356.50
2023-01-29T16:39:27.446Z,96357.27
2023-01-29T16:42:22.684Z,96354.83
2023-01-29T16:44:58.258Z,96365.36
2023-01-29T16:47:32.029Z,96368.97
2023-01-29T16:50:22.036Z,96369.79
2023-01-29T16:52:59.216Z,96369.67
2023-01-29T16:55:36.181Z,96369.42
2023-01-29T16:58:13.962Z,96370.33
2023-01-29T17:00:47.253Z,96370.40
2023-01-29T17:03:19.097Z,96373.86
2023-01-29T17:05:51.346Z,96375.44
2023-01-29T17:08:27.675Z,96375.90
2023-01-29T17:10:57.906Z,96376.98
2023-01-29T17:13:31.435Z,96378.15
2023-01-29T17:16:03.752Z,96377.15
2023-01-29T17:18:37.097Z,96375.84
2023-01-29T17:21:08.321Z,96377.13
2023-01-29T17:23:40.211Z,96377.92
2023-01-29T17:26:13.525Z,96381.55
2023-01-29T17:28:44.208Z,96383.61
2023-01-29T17:31:15.424Z,96380.13
2023-01-29T17:33:48.158Z,96379.15
2023-01-29T17:36:19.488Z,96378.48
2023-01-29T17:38:52.861Z,96373.37
2023-01-29T17:41:27.587Z,96370.50
2023-01-29T17:43:59.743Z,96369.86
2023-01-29T17:46:31.517Z,96371.54
2023-01-29T17:49:02.569Z,96374.52
2023-01-29T17:51:33.176Z,96377.23
2023-01-29T17:54:03.606Z,96381.71
2023-01-29T17:56:34.033Z,96380.34
2023-01-29T17:59:06.038Z,96380.74
2023-01-29T18:01:39.942Z,96377.77
2023-01-29T18:04:11.139Z,96380.14
2023-01-29T18:06:46.225Z,96377.19
2023-01-29T18:09:18.440Z,96380.31
2023-01-29T18:11:54.042Z,96382.04
2023-01-29T18:14:25.708Z,96377.92
2023-01-29T18:16:57.406Z,96378.41
2023-01-29T18:19:30.729Z,96379.61
2023-01-29T18:22:05.925Z,96379.29
2023-01-29T18:24:38.601Z,96378.31
2023-01-29T18:27:14.510Z,96383.45
2023-01-29T18:29:46.046Z,96380.62
2023-01-29T18:32:17.749Z,96378.16
2023-01-29T18:34:54.356Z,96371.20
2023-01-29T18:37:26.149Z,96372.25
2023-01-29T18:39:58.967Z,96375.50
2023-01-29T18:42:35.785Z,96376.96
2023-01-29T18:45:09.709Z,96373.54
2023-01-29T18:47:42.863Z,96378.59
2023-01-29T18:50:14.141Z,96379.69
2023-01-29T18:52:43.574Z,96377.60
2023-01-29T18:55:14.308Z,96378.19
2023-01-29T18:58:27.996Z,96378.55
2023-01-29T19:00:38.546Z,96381.75
2023-01-29T19:03:10.272Z,96382.20
2023-01-29T19:05:43.106Z,96385.26
2023-01-29T19:08:13.745Z,96380.44
2023-01-29T19:10:46.978Z,96380.42
2023-01-29T19:13:22.924Z,96379.91
2023-01-29T19:15:56.681Z,96380.34
2023-01-29T19:18:32.399Z,96389.16
2023-01-29T19:21:10.415Z,96389.49
2023-01-29T19:23:42.221Z,96390.34
2023-01-29T19:26:36.508Z,96387.81
2023-01-29T19:29:09.453Z,96391.61
2023-01-29T19:31:39.934Z,96390.32
2023-01-29T19:34:11.485Z,96387.83
2023-01-29T19:36:42.934Z,96387.46
2023-01-29T19:39:23.482Z,96387.64
2023-01-29T19:42:10.317Z,96389.61
2023-01-29T19:45:00.377Z,96391.86
2023-01-29T19:47:49.548Z,96394.77
2023-01-29T19:50:22.001Z,96394.66
2023-01-29T19:52:53.102Z,96394.00
2023-01-29T19:55:24.212Z,96394.19
2023-01-29T19:57:56.814Z,96396.38
2023-01-29T20:00:33.405Z,96398.20
2023-01-29T20:03:05.009Z,96400.92
2023-01-29T20:05:43.953Z,96402.89
2023-01-29T20:08:18.044Z,96395.00
2023-01-29T20:10:49.484Z,96394.79
2023-01-29T20:13:19.696Z,96396.52
2023-01-29T20:15:53.062Z,96397.85
2023-01-29T20:18:23.489Z,96402.30
2023-01-29T20:20:54.042Z,96401.52
2023-01-29T20:23:36.513Z,96404.10
2023-01-29T20:26:09.400Z,96403.32
2023-01-29T20:28:40.065Z,96404.66
2023-01-29T20:31:12.894Z,96404.08
2023-01-29T20:33:54.753Z,96400.54
2023-01-29T20:36:27.455Z,96401.77
2023-01-29T20:38:57.825Z,96399.83
2023-01-29T20:41:35.139Z,96402.45
2023-01-29T20:44:09.325Z,96402.69
2023-01-29T20:46:40.650Z,96405.31
2023-01-29T20:49:12.191Z,96408.95
2023-01-29T20:51:43.103Z,96413.21
2023-01-29T20:54:14.277Z,96415.50
2023-01-29T20:56:52.719Z,96417.39
2023-01-29T20:59:28.697Z,96416.20
2023-01-29T21:02:00.493Z,96416.04
2023-01-29T21:04:31.156Z,96418.59
2023-01-29T21:07:02.468Z,96420.13
2023-01-29T21:09:33.001Z,96421.10
2023-01-29T21:12:05.147Z,96416.05
2023-01-29T21:14:36.037Z,96413.96
2023-01-29T21:17:06.014Z,96412.81
2023-01-29T21:19:39.075Z,96414.13
2023-01-29T21:22:10.374Z,96407.96
2023-01-29T21:24:42.329Z,96407.80
2023-01-29T21:27:19.560Z,96405.33
2023-01-29T21:29:49.852Z,96404.14
2023-01-29T21:32:20.231Z,96408.40
2023-01-29T21:34:52.554Z,96408.75
2023-01-29T21:37:22.933Z,96410.38
2023-01-29T21:39:53.987Z,96408.34
2023-01-29T21:42:42.028Z,96412.34
2023-01-29T21:45:12.905Z,96411.05
2023-01-29T21:47:43.271Z,96413.52
2023-01-29T21:50:13.733Z,96411.41
2023-01-29T21:52:44.119Z,96407.13
2023-01-29T21:55:18.002Z,96403.06
2023-01-29T21:57:49.383Z,96396.04
2023-01-29T22:00:23.670Z,96401.05
2023-01-29T22:02:54.160Z,96404.47
2023-01-29T22:05:24.676Z,96405.04
2023-01-29T22:07:54.905Z,96402.99
2023-01-29T22:10:25.066Z,96403.25
2023-01-29T22:12:55.290Z,96401.34
2023-01-29T22:15:26.411Z,96401.66
2023-01-29T22:17:56.969Z,96404.05
2023-01-29T22:20:30.499Z,96404.66
2023-01-29T22:23:01.503Z,96408.37
2023-01-29T22:25:31.380Z,96407.61
2023-01-29T22:28:02.462Z,96406.74
2023-01-29T22:30:33.133Z,96406.11
2023-01-29T22:33:03.515Z,96403.04
2023-01-29T22:35:34.151Z,96401.62
2023-01-29T22:38:04.757Z,96406.55
2023-01-29T22:40:35.377Z,96409.56
2023-01-29T22:43:05.917Z,96412.95
2023-01-29T22:45:36.468Z,96411.34
2023-01-29T22:48:08.129Z,96413.95
2023-01-29T22:50:38.667Z,96414.73
2023-01-29T22:53:09.542Z,96418.59
2023-01-29T22:55:40.810Z,96420.70
2023-01-29T22:58:11.081Z,96422.48
2023-01-29T23:00:41.254Z,96422.07
2023-01-29T23:03:11.828Z,96416.73
2023-01-29T23:05:42.461Z,96415.45
2023-01-29T23:08:12.838Z,96420.40
2023-01-29T23:10:43.123Z,96417.77
2023-01-29T23:13:13.360Z,96416.61
2023-01-29T23:15:43.689Z,96420.72
2023-01-29T23:18:14.148Z,96427.36
2023-01-29T23:20:44.762Z,96428.84
2023-01-29T23:23:15.314Z,96426.08
2023-01-29T23:26:03.159Z,96426.65
2023-01-29T23:28:33.440Z,96426.49
2023-01-29T23:31:03.854Z,96428.20
2023-01-29T23:33:34.065Z,96431.06
2023-01-29T23:36:04.638Z,96434.20
2023-01-29T23:38:34.803Z,96434.77
2023-01-29T23:41:05.573Z,96438.40
2023-01-29T23:43:36.440Z,96434.59
2023-01-29T23:46:07.209Z,96429.95
2023-01-29T23:48:37.499Z,96426.91
2023-01-29T23:51:08.315Z,96432.73
2023-01-29T23:53:38.524Z,96430.35
2023-01-29T23:56:10.649Z,96432.38
2023-01-29T23:58:41.169Z,96433.57
